sensor_id;sensor_type;location;lat;lon;timestamp;P1;durP1;ratioP1;P2;durP2;ratioP2
30543;SDS011;43388;46.308;4.600;2022-12-18T00:01:37;69.35;;;44.08;;
30543;SDS011;43388;46.308;4.600;2022-12-18T00:04:04;59.63;;;39.83;;
30543;SDS011;43388;46.308;4.600;2022-12-18T00:06:31;57.72;;;36.95;;
30543;SDS011;43388;46.308;4.600;2022-12-18T00:08:57;49.25;;;34.72;;
30543;SDS011;43388;46.308;4.600;2022-12-18T00:11:26;47.72;;;32.40;;
30543;SDS011;43388;46.308;4.600;2022-12-18T00:13:53;49.45;;;33.28;;
30543;SDS011;43388;46.308;4.600;2022-12-18T00:16:21;45.17;;;31.40;;
30543;SDS011;43388;46.308;4.600;2022-12-18T00:18:48;42.95;;;29.92;;
30543;SDS011;43388;46.308;4.600;2022-12-18T00:21:14;46.28;;;32.33;;
30543;SDS011;43388;46.308;4.600;2022-12-18T00:23:41;45.60;;;30.95;;
30543;SDS011;43388;46.308;4.600;2022-12-18T00:26:09;45.47;;;32.13;;
30543;SDS011;43388;46.308;4.600;2022-12-18T00:28:36;46.50;;;31.60;;
30543;SDS011;43388;46.308;4.600;2022-12-18T00:31:06;45.55;;;32.25;;
30543;SDS011;43388;46.308;4.600;2022-12-18T00:33:32;44.75;;;31.70;;
30543;SDS011;43388;46.308;4.600;2022-12-18T00:36:02;44.22;;;31.23;;
30543;SDS011;43388;46.308;4.600;2022-12-18T00:38:28;42.63;;;30.85;;
30543;SDS011;43388;46.308;4.600;2022-12-18T00:40:54;51.33;;;32.60;;
30543;SDS011;43388;46.308;4.600;2022-12-18T00:43:20;50.05;;;33.78;;
30543;SDS011;43388;46.308;4.600;2022-12-18T00:45:46;45.45;;;32.15;;
30543;SDS011;43388;46.308;4.600;2022-12-18T00:48:12;46.00;;;31.48;;
30543;SDS011;43388;46.308;4.600;2022-12-18T00:50:38;47.90;;;33.38;;
30543;SDS011;43388;46.308;4.600;2022-12-18T00:53:04;53.30;;;35.10;;
30543;SDS011;43388;46.308;4.600;2022-12-18T00:55:30;50.17;;;34.15;;
30543;SDS011;43388;46.308;4.600;2022-12-18T00:57:56;50.03;;;34.83;;
30543;SDS011;43388;46.308;4.600;2022-12-18T01:00:22;52.22;;;34.95;;
30543;SDS011;43388;46.308;4.600;2022-12-18T01:02:48;49.60;;;33.15;;
30543;SDS011;43388;46.308;4.600;2022-12-18T01:05:14;46.25;;;33.05;;
30543;SDS011;43388;46.308;4.600;2022-12-18T01:07:40;52.03;;;36.03;;
30543;SDS011;43388;46.308;4.600;2022-12-18T01:10:07;49.78;;;34.58;;
30543;SDS011;43388;46.308;4.600;2022-12-18T01:12:34;53.15;;;35.15;;
30543;SDS011;43388;46.308;4.600;2022-12-18T01:15:01;54.17;;;36.08;;
30543;SDS011;43388;46.308;4.600;2022-12-18T01:17:27;52.90;;;33.33;;
30543;SDS011;43388;46.308;4.600;2022-12-18T01:19:53;56.72;;;37.40;;
30543;SDS011;43388;46.308;4.600;2022-12-18T01:22:19;52.70;;;36.50;;
30543;SDS011;43388;46.308;4.600;2022-12-18T01:24:45;51.45;;;35.63;;
30543;SDS011;43388;46.308;4.600;2022-12-18T01:27:11;53.65;;;35.67;;
30543;SDS011;43388;46.308;4.600;2022-12-18T01:29:37;55.80;;;36.17;;
30543;SDS011;43388;46.308;4.600;2022-12-18T01:32:03;57.55;;;37.33;;
30543;SDS011;43388;46.308;4.600;2022-12-18T01:34:29;54.35;;;36.88;;
30543;SDS011;43388;46.308;4.600;2022-12-18T01:36:56;52.42;;;36.58;;
30543;SDS011;43388;46.308;4.600;2022-12-18T01:39:22;57.97;;;37.08;;
30543;SDS011;43388;46.308;4.600;2022-12-18T01:41:48;71.47;;;44.35;;
30543;SDS011;43388;46.308;4.600;2022-12-18T01:47:15;66.55;;;41.15;;
30543;SDS011;43388;46.308;4.600;2022-12-18T01:49:43;74.80;;;44.70;;
30543;SDS011;43388;46.308;4.600;2022-12-18T01:52:09;79.00;;;44.45;;
30543;SDS011;43388;46.308;4.600;2022-12-18T01:54:35;61.08;;;38.47;;
30543;SDS011;43388;46.308;4.600;2022-12-18T01:57:01;57.60;;;38.10;;
30543;SDS011;43388;46.308;4.600;2022-12-18T01:59:27;69.85;;;42.70;;
30543;SDS011;43388;46.308;4.600;2022-12-18T02:01:55;69.68;;;41.83;;
30543;SDS011;43388;46.308;4.600;2022-12-18T02:04:21;64.07;;;40.45;;
30543;SDS011;43388;46.308;4.600;2022-12-18T02:06:49;78.05;;;46.05;;
30543;SDS011;43388;46.308;4.600;2022-12-18T02:09:20;54.63;;;35.47;;
30543;SDS011;43388;46.308;4.600;2022-12-18T02:14:16;45.35;;;31.73;;
30543;SDS011;43388;46.308;4.600;2022-12-18T02:22:04;43.47;;;30.42;;
30543;SDS011;43388;46.308;4.600;2022-12-18T02:24:39;43.22;;;30.92;;
30543;SDS011;43388;46.308;4.600;2022-12-18T02:27:09;41.10;;;29.17;;
30543;SDS011;43388;46.308;4.600;2022-12-18T02:29:40;38.38;;;27.48;;
30543;SDS011;43388;46.308;4.600;2022-12-18T02:32:11;39.85;;;28.08;;
30543;SDS011;43388;46.308;4.600;2022-12-18T02:34:39;41.80;;;28.58;;
30543;SDS011;43388;46.308;4.600;2022-12-18T02:37:06;38.40;;;27.98;;
30543;SDS011;43388;46.308;4.600;2022-12-18T02:39:34;44.80;;;28.75;;
30543;SDS011;43388;46.308;4.600;2022-12-18T02:42:01;39.88;;;28.02;;
30543;SDS011;43388;46.308;4.600;2022-12-18T02:44:32;38.40;;;26.92;;
30543;SDS011;43388;46.308;4.600;2022-12-18T02:46:58;40.20;;;29.23;;
30543;SDS011;43388;46.308;4.600;2022-12-18T02:49:33;37.08;;;26.80;;
30543;SDS011;43388;46.308;4.600;2022-12-18T02:52:04;36.65;;;26.33;;
30543;SDS011;43388;46.308;4.600;2022-12-18T02:54:41;40.05;;;28.45;;
30543;SDS011;43388;46.308;4.600;2022-12-18T02:57:13;37.60;;;27.42;;
30543;SDS011;43388;46.308;4.600;2022-12-18T02:59:41;37.60;;;26.17;;
30543;SDS011;43388;46.308;4.600;2022-12-18T03:02:23;37.78;;;26.63;;
30543;SDS011;43388;46.308;4.600;2022-12-18T03:10:15;33.85;;;24.98;;
30543;SDS011;43388;46.308;4.600;2022-12-18T03:12:44;35.67;;;24.88;;
30543;SDS011;43388;46.308;4.600;2022-12-18T03:15:13;36.40;;;25.50;;
30543;SDS011;43388;46.308;4.600;2022-12-18T03:17:41;35.00;;;24.52;;
30543;SDS011;43388;46.308;4.600;2022-12-18T03:20:11;34.05;;;24.80;;
30543;SDS011;43388;46.308;4.600;2022-12-18T03:22:38;36.20;;;25.38;;
30543;SDS011;43388;46.308;4.600;2022-12-18T03:25:05;32.95;;;24.48;;
30543;SDS011;43388;46.308;4.600;2022-12-18T03:27:32;36.58;;;24.60;;
30543;SDS011;43388;46.308;4.600;2022-12-18T03:32:32;32.90;;;23.52;;
30543;SDS011;43388;46.308;4.600;2022-12-18T03:34:59;33.30;;;23.75;;
30543;SDS011;43388;46.308;4.600;2022-12-18T03:37:30;34.92;;;25.35;;
30543;SDS011;43388;46.308;4.600;2022-12-18T03:39:56;36.33;;;27.17;;
30543;SDS011;43388;46.308;4.600;2022-12-18T03:42:29;34.75;;;24.35;;
30543;SDS011;43388;46.308;4.600;2022-12-18T03:47:27;31.80;;;22.42;;
30543;SDS011;43388;46.308;4.600;2022-12-18T03:52:41;33.08;;;22.95;;
30543;SDS011;43388;46.308;4.600;2022-12-18T03:55:08;35.80;;;24.05;;
30543;SDS011;43388;46.308;4.600;2022-12-18T03:57:35;30.85;;;22.15;;
30543;SDS011;43388;46.308;4.600;2022-12-18T04:00:05;30.40;;;22.77;;
30543;SDS011;43388;46.308;4.600;2022-12-18T04:02:31;31.88;;;22.15;;
30543;SDS011;43388;46.308;4.600;2022-12-18T04:04:58;33.78;;;24.30;;
30543;SDS011;43388;46.308;4.600;2022-12-18T04:07:25;30.08;;;21.92;;
30543;SDS011;43388;46.308;4.600;2022-12-18T04:09:53;34.70;;;24.23;;
30543;SDS011;43388;46.308;4.600;2022-12-18T04:12:23;30.20;;;22.90;;
30543;SDS011;43388;46.308;4.600;2022-12-18T04:14:50;30.30;;;21.92;;
30543;SDS011;43388;46.308;4.600;2022-12-18T04:17:16;29.80;;;22.95;;
30543;SDS011;43388;46.308;4.600;2022-12-18T04:19:42;31.02;;;23.08;;
30543;SDS011;43388;46.308;4.600;2022-12-18T04:22:09;32.45;;;23.45;;
30543;SDS011;43388;46.308;4.600;2022-12-18T04:24:35;29.55;;;21.88;;
30543;SDS011;43388;46.308;4.600;2022-12-18T04:27:01;30.17;;;23.40;;
30543;SDS011;43388;46.308;4.600;2022-12-18T04:29:27;30.42;;;22.88;;
30543;SDS011;43388;46.308;4.600;2022-12-18T04:31:53;33.25;;;24.00;;
30543;SDS011;43388;46.308;4.600;2022-12-18T04:34:20;31.10;;;22.27;;
30543;SDS011;43388;46.308;4.600;2022-12-18T04:36:46;30.83;;;23.23;;
30543;SDS011;43388;46.308;4.600;2022-12-18T04:39:12;33.58;;;23.40;;
30543;SDS011;43388;46.308;4.600;2022-12-18T04:41:38;34.58;;;24.00;;
30543;SDS011;43388;46.308;4.600;2022-12-18T04:44:04;32.25;;;22.80;;
30543;SDS011;43388;46.308;4.600;2022-12-18T04:46:30;31.80;;;22.75;;
30543;SDS011;43388;46.308;4.600;2022-12-18T04:48:56;32.60;;;24.45;;
30543;SDS011;43388;46.308;4.600;2022-12-18T04:51:22;36.58;;;23.20;;
30543;SDS011;43388;46.308;4.600;2022-12-18T04:53:48;31.73;;;23.38;;
30543;SDS011;43388;46.308;4.600;2022-12-18T04:56:15;32.67;;;23.83;;
30543;SDS011;43388;46.308;4.600;2022-12-18T04:58:42;32.92;;;23.55;;
30543;SDS011;43388;46.308;4.600;2022-12-18T05:01:09;28.17;;;21.73;;
30543;SDS011;43388;46.308;4.600;2022-12-18T05:03:35;29.38;;;21.55;;
30543;SDS011;43388;46.308;4.600;2022-12-18T05:06:02;34.38;;;24.40;;
30543;SDS011;43388;46.308;4.600;2022-12-18T05:08:28;34.40;;;24.05;;
30543;SDS011;43388;46.308;4.600;2022-12-18T05:11:11;31.85;;;23.98;;
30543;SDS011;43388;46.308;4.600;2022-12-18T05:13:39;29.70;;;22.40;;
30543;SDS011;43388;46.308;4.600;2022-12-18T05:16:05;33.63;;;22.63;;
30543;SDS011;43388;46.308;4.600;2022-12-18T05:18:31;31.85;;;22.50;;
30543;SDS011;43388;46.308;4.600;2022-12-18T05:20:57;31.75;;;23.00;;
30543;SDS011;43388;46.308;4.600;2022-12-18T05:23:24;28.45;;;21.35;;
30543;SDS011;43388;46.308;4.600;2022-12-18T05:25:51;28.98;;;22.67;;
30543;SDS011;43388;46.308;4.600;2022-12-18T05:28:17;32.28;;;23.75;;
30543;SDS011;43388;46.308;4.600;2022-12-18T05:30:47;30.23;;;22.95;;
30543;SDS011;43388;46.308;4.600;2022-12-18T05:33:13;35.45;;;24.25;;
30543;SDS011;43388;46.308;4.600;2022-12-18T05:35:39;34.38;;;24.75;;
30543;SDS011;43388;46.308;4.600;2022-12-18T05:38:05;32.30;;;22.50;;
30543;SDS011;43388;46.308;4.600;2022-12-18T05:40:31;33.35;;;24.92;;
30543;SDS011;43388;46.308;4.600;2022-12-18T05:42:57;37.65;;;28.08;;
30543;SDS011;43388;46.308;4.600;2022-12-18T05:45:23;44.75;;;29.40;;
30543;SDS011;43388;46.308;4.600;2022-12-18T05:47:49;64.43;;;33.63;;
30543;SDS011;43388;46.308;4.600;2022-12-18T05:50:15;43.95;;;27.95;;
30543;SDS011;43388;46.308;4.600;2022-12-18T05:52:41;46.95;;;28.42;;
30543;SDS011;43388;46.308;4.600;2022-12-18T05:55:07;54.25;;;29.10;;
30543;SDS011;43388;46.308;4.600;2022-12-18T05:57:33;49.28;;;29.05;;
30543;SDS011;43388;46.308;4.600;2022-12-18T05:59:59;45.45;;;30.08;;
30543;SDS011;43388;46.308;4.600;2022-12-18T06:02:26;50.78;;;28.20;;
30543;SDS011;43388;46.308;4.600;2022-12-18T06:04:52;42.70;;;26.50;;
30543;SDS011;43388;46.308;4.600;2022-12-18T06:07:18;44.05;;;27.52;;
30543;SDS011;43388;46.308;4.600;2022-12-18T06:09:44;48.92;;;28.23;;
30543;SDS011;43388;46.308;4.600;2022-12-18T06:12:10;41.13;;;26.95;;
30543;SDS011;43388;46.308;4.600;2022-12-18T06:14:36;37.05;;;26.45;;
30543;SDS011;43388;46.308;4.600;2022-12-18T06:17:02;37.95;;;25.23;;
30543;SDS011;43388;46.308;4.600;2022-12-18T06:19:28;37.03;;;25.08;;
30543;SDS011;43388;46.308;4.600;2022-12-18T06:21:54;43.88;;;24.75;;
30543;SDS011;43388;46.308;4.600;2022-12-18T06:24:22;35.95;;;24.98;;
30543;SDS011;43388;46.308;4.600;2022-12-18T06:26:48;47.33;;;26.88;;
30543;SDS011;43388;46.308;4.600;2022-12-18T06:29:14;37.10;;;25.65;;
30543;SDS011;43388;46.308;4.600;2022-12-18T06:31:40;32.25;;;22.33;;
30543;SDS011;43388;46.308;4.600;2022-12-18T06:34:06;31.67;;;22.80;;
30543;SDS011;43388;46.308;4.600;2022-12-18T06:36:32;27.98;;;20.73;;
30543;SDS011;43388;46.308;4.600;2022-12-18T06:38:58;32.38;;;22.52;;
30543;SDS011;43388;46.308;4.600;2022-12-18T06:41:24;29.48;;;20.48;;
30543;SDS011;43388;46.308;4.600;2022-12-18T06:43:51;27.48;;;20.92;;
30543;SDS011;43388;46.308;4.600;2022-12-18T06:46:17;27.77;;;20.85;;
30543;SDS011;43388;46.308;4.600;2022-12-18T06:48:45;32.88;;;21.52;;
30543;SDS011;43388;46.308;4.600;2022-12-18T06:51:12;35.17;;;23.38;;
30543;SDS011;43388;46.308;4.600;2022-12-18T06:53:40;31.83;;;23.33;;
30543;SDS011;43388;46.308;4.600;2022-12-18T06:56:07;28.92;;;21.35;;
30543;SDS011;43388;46.308;4.600;2022-12-18T06:58:33;27.80;;;21.83;;
30543;SDS011;43388;46.308;4.600;2022-12-18T07:01:00;26.88;;;21.02;;
30543;SDS011;43388;46.308;4.600;2022-12-18T07:03:26;30.15;;;23.05;;
30543;SDS011;43388;46.308;4.600;2022-12-18T07:05:52;28.02;;;21.88;;
30543;SDS011;43388;46.308;4.600;2022-12-18T07:08:18;29.73;;;22.30;;
30543;SDS011;43388;46.308;4.600;2022-12-18T07:10:44;30.55;;;22.73;;
30543;SDS011;43388;46.308;4.600;2022-12-18T07:13:10;29.27;;;21.25;;
30543;SDS011;43388;46.308;4.600;2022-12-18T07:15:37;30.50;;;21.90;;
30543;SDS011;43388;46.308;4.600;2022-12-18T07:18:03;29.73;;;21.90;;
30543;SDS011;43388;46.308;4.600;2022-12-18T07:20:29;28.83;;;22.90;;
30543;SDS011;43388;46.308;4.600;2022-12-18T07:22:55;28.33;;;20.67;;
30543;SDS011;43388;46.308;4.600;2022-12-18T07:25:21;28.63;;;21.30;;
30543;SDS011;43388;46.308;4.600;2022-12-18T07:27:47;27.85;;;21.27;;
30543;SDS011;43388;46.308;4.600;2022-12-18T07:30:13;28.92;;;20.73;;
30543;SDS011;43388;46.308;4.600;2022-12-18T07:32:39;25.90;;;19.50;;
30543;SDS011;43388;46.308;4.600;2022-12-18T07:35:05;26.27;;;19.73;;
30543;SDS011;43388;46.308;4.600;2022-12-18T07:37:32;30.02;;;20.83;;
30543;SDS011;43388;46.308;4.600;2022-12-18T07:39:58;24.58;;;18.58;;
30543;SDS011;43388;46.308;4.600;2022-12-18T07:42:24;24.05;;;18.48;;
30543;SDS011;43388;46.308;4.600;2022-12-18T07:44:55;24.92;;;18.48;;
30543;SDS011;43388;46.308;4.600;2022-12-18T07:47:21;24.20;;;17.23;;
30543;SDS011;43388;46.308;4.600;2022-12-18T07:49:47;26.35;;;18.10;;
30543;SDS011;43388;46.308;4.600;2022-12-18T07:52:14;28.23;;;20.20;;
30543;SDS011;43388;46.308;4.600;2022-12-18T07:54:40;34.33;;;21.65;;
30543;SDS011;43388;46.308;4.600;2022-12-18T07:57:06;36.22;;;22.45;;
30543;SDS011;43388;46.308;4.600;2022-12-18T07:59:32;34.90;;;23.20;;
30543;SDS011;43388;46.308;4.600;2022-12-18T08:01:58;37.97;;;22.88;;
30543;SDS011;43388;46.308;4.600;2022-12-18T08:04:24;30.48;;;21.27;;
30543;SDS011;43388;46.308;4.600;2022-12-18T08:06:51;44.30;;;23.30;;
30543;SDS011;43388;46.308;4.600;2022-12-18T08:09:17;39.15;;;23.73;;
30543;SDS011;43388;46.308;4.600;2022-12-18T08:11:43;29.73;;;20.65;;
30543;SDS011;43388;46.308;4.600;2022-12-18T08:14:09;34.92;;;20.83;;
30543;SDS011;43388;46.308;4.600;2022-12-18T08:16:35;27.08;;;19.00;;
30543;SDS011;43388;46.308;4.600;2022-12-18T08:19:01;27.92;;;19.20;;
30543;SDS011;43388;46.308;4.600;2022-12-18T08:21:28;31.15;;;21.70;;
30543;SDS011;43388;46.308;4.600;2022-12-18T08:23:56;30.00;;;20.55;;
30543;SDS011;43388;46.308;4.600;2022-12-18T08:26:22;26.67;;;19.98;;
30543;SDS011;43388;46.308;4.600;2022-12-18T08:28:49;27.27;;;19.50;;
30543;SDS011;43388;46.308;4.600;2022-12-18T08:31:15;22.58;;;16.33;;
30543;SDS011;43388;46.308;4.600;2022-12-18T08:33:41;24.67;;;18.23;;
30543;SDS011;43388;46.308;4.600;2022-12-18T08:36:08;24.80;;;17.40;;
30543;SDS011;43388;46.308;4.600;2022-12-18T08:38:34;23.20;;;17.58;;
30543;SDS011;43388;46.308;4.600;2022-12-18T08:43:26;19.80;;;15.45;;
30543;SDS011;43388;46.308;4.600;2022-12-18T08:46:11;18.45;;;15.70;;
30543;SDS011;43388;46.308;4.600;2022-12-18T08:48:41;19.02;;;14.30;;
30543;SDS011;43388;46.308;4.600;2022-12-18T08:51:07;19.63;;;15.70;;
30543;SDS011;43388;46.308;4.600;2022-12-18T08:53:34;18.00;;;14.32;;
30543;SDS011;43388;46.308;4.600;2022-12-18T08:56:00;18.88;;;15.80;;
30543;SDS011;43388;46.308;4.600;2022-12-18T08:58:26;18.48;;;15.13;;
30543;SDS011;43388;46.308;4.600;2022-12-18T09:00:52;18.90;;;14.75;;
30543;SDS011;43388;46.308;4.600;2022-12-18T09:03:19;21.15;;;15.38;;
30543;SDS011;43388;46.308;4.600;2022-12-18T09:05:47;19.35;;;15.07;;
30543;SDS011;43388;46.308;4.600;2022-12-18T09:08:13;19.60;;;16.38;;
30543;SDS011;43388;46.308;4.600;2022-12-18T09:10:43;18.25;;;15.30;;
30543;SDS011;43388;46.308;4.600;2022-12-18T09:13:10;20.38;;;17.17;;
30543;SDS011;43388;46.308;4.600;2022-12-18T09:15:40;18.42;;;14.98;;
30543;SDS011;43388;46.308;4.600;2022-12-18T09:18:07;20.95;;;16.33;;
30543;SDS011;43388;46.308;4.600;2022-12-18T09:20:34;23.73;;;16.30;;
30543;SDS011;43388;46.308;4.600;2022-12-18T09:23:00;30.67;;;19.88;;
30543;SDS011;43388;46.308;4.600;2022-12-18T09:25:26;22.33;;;16.50;;
30543;SDS011;43388;46.308;4.600;2022-12-18T09:27:56;24.05;;;16.90;;
30543;SDS011;43388;46.308;4.600;2022-12-18T09:30:22;25.38;;;16.58;;
30543;SDS011;43388;46.308;4.600;2022-12-18T09:32:48;28.05;;;18.40;;
30543;SDS011;43388;46.308;4.600;2022-12-18T09:35:15;20.20;;;15.73;;
30543;SDS011;43388;46.308;4.600;2022-12-18T09:37:41;27.42;;;16.83;;
30543;SDS011;43388;46.308;4.600;2022-12-18T09:40:12;23.02;;;14.65;;
30543;SDS011;43388;46.308;4.600;2022-12-18T09:42:39;19.83;;;15.20;;
30543;SDS011;43388;46.308;4.600;2022-12-18T09:45:07;20.50;;;14.07;;
30543;SDS011;43388;46.308;4.600;2022-12-18T09:47:37;14.02;;;12.20;;
30543;SDS011;43388;46.308;4.600;2022-12-18T09:50:17;14.85;;;12.20;;
30543;SDS011;43388;46.308;4.600;2022-12-18T09:52:47;15.48;;;12.30;;
30543;SDS011;43388;46.308;4.600;2022-12-18T09:57:42;17.88;;;13.93;;
30543;SDS011;43388;46.308;4.600;2022-12-18T10:00:15;16.60;;;12.60;;
30543;SDS011;43388;46.308;4.600;2022-12-18T10:02:41;15.90;;;12.40;;
30543;SDS011;43388;46.308;4.600;2022-12-18T10:05:10;16.77;;;12.27;;
30543;SDS011;43388;46.308;4.600;2022-12-18T10:10:10;13.55;;;11.73;;
30543;SDS011;43388;46.308;4.600;2022-12-18T10:13:01;13.23;;;10.82;;
30543;SDS011;43388;46.308;4.600;2022-12-18T10:15:30;12.52;;;10.23;;
30543;SDS011;43388;46.308;4.600;2022-12-18T10:20:44;15.95;;;12.68;;
30543;SDS011;43388;46.308;4.600;2022-12-18T10:28:21;12.63;;;11.30;;
30543;SDS011;43388;46.308;4.600;2022-12-18T10:30:48;11.88;;;10.57;;
30543;SDS011;43388;46.308;4.600;2022-12-18T10:33:16;12.23;;;10.98;;
30543;SDS011;43388;46.308;4.600;2022-12-18T10:35:42;12.48;;;10.98;;
30543;SDS011;43388;46.308;4.600;2022-12-18T10:43:19;13.20;;;11.10;;
30543;SDS011;43388;46.308;4.600;2022-12-18T10:45:57;13.50;;;10.38;;
30543;SDS011;43388;46.308;4.600;2022-12-18T10:48:24;11.40;;;10.10;;
30543;SDS011;43388;46.308;4.600;2022-12-18T10:50:50;13.52;;;9.63;;
30543;SDS011;43388;46.308;4.600;2022-12-18T10:53:24;11.75;;;10.55;;
30543;SDS011;43388;46.308;4.600;2022-12-18T10:55:52;12.00;;;10.80;;
30543;SDS011;43388;46.308;4.600;2022-12-18T10:58:28;13.77;;;10.93;;
30543;SDS011;43388;46.308;4.600;2022-12-18T11:01:02;11.35;;;10.10;;
30543;SDS011;43388;46.308;4.600;2022-12-18T11:03:30;12.52;;;10.73;;
30543;SDS011;43388;46.308;4.600;2022-12-18T11:06:07;14.48;;;12.95;;
30543;SDS011;43388;46.308;4.600;2022-12-18T11:08:33;11.90;;;10.70;;
30543;SDS011;43388;46.308;4.600;2022-12-18T11:11:00;17.17;;;13.18;;
30543;SDS011;43388;46.308;4.600;2022-12-18T11:13:26;16.48;;;13.43;;
30543;SDS011;43388;46.308;4.600;2022-12-18T11:15:53;18.23;;;13.25;;
30543;SDS011;43388;46.308;4.600;2022-12-18T11:18:32;20.52;;;14.40;;
30543;SDS011;43388;46.308;4.600;2022-12-18T11:21:11;18.08;;;15.00;;
30543;SDS011;43388;46.308;4.600;2022-12-18T11:23:44;20.45;;;13.48;;
30543;SDS011;43388;46.308;4.600;2022-12-18T11:26:12;19.90;;;14.73;;
30543;SDS011;43388;46.308;4.600;2022-12-18T11:33:42;17.65;;;13.90;;
30543;SDS011;43388;46.308;4.600;2022-12-18T11:36:10;17.98;;;13.73;;
30543;SDS011;43388;46.308;4.600;2022-12-18T11:38:40;18.60;;;14.25;;
30543;SDS011;43388;46.308;4.600;2022-12-18T11:41:28;21.40;;;15.25;;
30543;SDS011;43388;46.308;4.600;2022-12-18T11:44:15;20.02;;;15.52;;
30543;SDS011;43388;46.308;4.600;2022-12-18T11:46:49;19.42;;;13.73;;
30543;SDS011;43388;46.308;4.600;2022-12-18T11:49:20;14.15;;;11.85;;
30543;SDS011;43388;46.308;4.600;2022-12-18T11:51:49;13.35;;;10.98;;
30543;SDS011;43388;46.308;4.600;2022-12-18T11:54:17;12.63;;;9.95;;
30543;SDS011;43388;46.308;4.600;2022-12-18T11:56:47;11.63;;;9.55;;
30543;SDS011;43388;46.308;4.600;2022-12-18T11:59:18;12.75;;;11.00;;
30543;SDS011;43388;46.308;4.600;2022-12-18T12:01:51;13.15;;;9.95;;
30543;SDS011;43388;46.308;4.600;2022-12-18T12:04:22;11.27;;;10.00;;
30543;SDS011;43388;46.308;4.600;2022-12-18T12:06:56;11.33;;;10.10;;
30543;SDS011;43388;46.308;4.600;2022-12-18T12:12:39;10.68;;;9.57;;
30543;SDS011;43388;46.308;4.600;2022-12-18T12:24:58;11.57;;;10.10;;
30543;SDS011;43388;46.308;4.600;2022-12-18T12:30:00;10.50;;;8.88;;
30543;SDS011;43388;46.308;4.600;2022-12-18T12:38:34;9.43;;;7.80;;
30543;SDS011;43388;46.308;4.600;2022-12-18T12:40:58;9.07;;;8.27;;
30543;SDS011;43388;46.308;4.600;2022-12-18T12:43:33;9.00;;;8.20;;
30543;SDS011;43388;46.308;4.600;2022-12-18T12:46:05;10.00;;;9.10;;
30543;SDS011;43388;46.308;4.600;2022-12-18T12:48:50;9.63;;;8.73;;
30543;SDS011;43388;46.308;4.600;2022-12-18T12:51:36;8.07;;;7.30;;
30543;SDS011;43388;46.308;4.600;2022-12-18T12:54:04;8.60;;;7.78;;
30543;SDS011;43388;46.308;4.600;2022-12-18T12:56:43;8.73;;;7.90;;
30543;SDS011;43388;46.308;4.600;2022-12-18T12:59:13;9.02;;;8.23;;
30543;SDS011;43388;46.308;4.600;2022-12-18T13:01:41;9.55;;;8.75;;
30543;SDS011;43388;46.308;4.600;2022-12-18T13:07:04;8.83;;;8.03;;
30543;SDS011;43388;46.308;4.600;2022-12-18T13:09:31;9.25;;;8.25;;
30543;SDS011;43388;46.308;4.600;2022-12-18T13:12:04;9.77;;;8.77;;
30543;SDS011;43388;46.308;4.600;2022-12-18T13:14:55;9.35;;;8.45;;
30543;SDS011;43388;46.308;4.600;2022-12-18T13:17:37;8.50;;;7.53;;
30543;SDS011;43388;46.308;4.600;2022-12-18T13:22:40;7.72;;;7.13;;
30543;SDS011;43388;46.308;4.600;2022-12-18T13:38:32;10.05;;;9.05;;
30543;SDS011;43388;46.308;4.600;2022-12-18T13:41:00;11.23;;;10.13;;
30543;SDS011;43388;46.308;4.600;2022-12-18T13:43:38;10.43;;;9.50;;
30543;SDS011;43388;46.308;4.600;2022-12-18T13:48:55;9.73;;;8.52;;
30543;SDS011;43388;46.308;4.600;2022-12-18T13:51:21;12.63;;;11.32;;
30543;SDS011;43388;46.308;4.600;2022-12-18T13:53:49;14.32;;;11.15;;
30543;SDS011;43388;46.308;4.600;2022-12-18T13:56:21;13.43;;;11.23;;
30543;SDS011;43388;46.308;4.600;2022-12-18T14:01:32;13.32;;;11.98;;
30543;SDS011;43388;46.308;4.600;2022-12-18T14:06:42;11.93;;;10.25;;
30543;SDS011;43388;46.308;4.600;2022-12-18T14:09:12;15.35;;;13.45;;
30543;SDS011;43388;46.308;4.600;2022-12-18T14:11:39;17.20;;;14.40;;
30543;SDS011;43388;46.308;4.600;2022-12-18T14:14:05;16.92;;;14.63;;
30543;SDS011;43388;46.308;4.600;2022-12-18T14:16:32;19.27;;;15.23;;
30543;SDS011;43388;46.308;4.600;2022-12-18T14:18:59;19.83;;;16.33;;
30543;SDS011;43388;46.308;4.600;2022-12-18T14:21:28;18.38;;;15.82;;
30543;SDS011;43388;46.308;4.600;2022-12-18T14:26:40;21.43;;;15.93;;
30543;SDS011;43388;46.308;4.600;2022-12-18T14:32:04;19.80;;;15.82;;
30543;SDS011;43388;46.308;4.600;2022-12-18T14:34:30;16.95;;;13.85;;
30543;SDS011;43388;46.308;4.600;2022-12-18T14:36:56;15.55;;;12.32;;
30543;SDS011;43388;46.308;4.600;2022-12-18T14:39:22;16.38;;;12.98;;
30543;SDS011;43388;46.308;4.600;2022-12-18T14:41:50;14.93;;;12.38;;
30543;SDS011;43388;46.308;4.600;2022-12-18T14:44:16;13.52;;;11.32;;
30543;SDS011;43388;46.308;4.600;2022-12-18T14:46:43;15.55;;;11.68;;
30543;SDS011;43388;46.308;4.600;2022-12-18T14:51:56;12.10;;;10.60;;
30543;SDS011;43388;46.308;4.600;2022-12-18T14:54:24;10.77;;;9.68;;
30543;SDS011;43388;46.308;4.600;2022-12-18T14:56:51;11.85;;;8.88;;
30543;SDS011;43388;46.308;4.600;2022-12-18T14:59:23;11.50;;;8.30;;
30543;SDS011;43388;46.308;4.600;2022-12-18T15:04:35;8.68;;;7.85;;
30543;SDS011;43388;46.308;4.600;2022-12-18T15:09:30;14.13;;;10.52;;
30543;SDS011;43388;46.308;4.600;2022-12-18T15:11:57;12.43;;;8.43;;
30543;SDS011;43388;46.308;4.600;2022-12-18T15:16:56;14.13;;;10.40;;
30543;SDS011;43388;46.308;4.600;2022-12-18T15:19:26;24.63;;;14.65;;
30543;SDS011;43388;46.308;4.600;2022-12-18T15:21:57;17.75;;;11.82;;
30543;SDS011;43388;46.308;4.600;2022-12-18T15:24:24;21.33;;;12.85;;
30543;SDS011;43388;46.308;4.600;2022-12-18T15:26:52;21.00;;;14.23;;
30543;SDS011;43388;46.308;4.600;2022-12-18T15:29:19;23.40;;;14.63;;
30543;SDS011;43388;46.308;4.600;2022-12-18T15:31:58;16.30;;;11.60;;
30543;SDS011;43388;46.308;4.600;2022-12-18T15:34:24;14.52;;;10.40;;
30543;SDS011;43388;46.308;4.600;2022-12-18T15:36:51;14.13;;;10.95;;
30543;SDS011;43388;46.308;4.600;2022-12-18T15:39:17;12.85;;;10.48;;
30543;SDS011;43388;46.308;4.600;2022-12-18T15:41:43;12.73;;;11.48;;
30543;SDS011;43388;46.308;4.600;2022-12-18T15:44:29;12.55;;;10.00;;
30543;SDS011;43388;46.308;4.600;2022-12-18T15:46:55;11.98;;;10.25;;
30543;SDS011;43388;46.308;4.600;2022-12-18T15:49:21;11.88;;;10.65;;
30543;SDS011;43388;46.308;4.600;2022-12-18T15:51:54;15.05;;;10.95;;
30543;SDS011;43388;46.308;4.600;2022-12-18T15:54:22;11.93;;;10.73;;
30543;SDS011;43388;46.308;4.600;2022-12-18T15:57:09;11.57;;;10.38;;
30543;SDS011;43388;46.308;4.600;2022-12-18T15:59:47;11.68;;;10.25;;
30543;SDS011;43388;46.308;4.600;2022-12-18T16:02:15;10.80;;;9.70;;
30543;SDS011;43388;46.308;4.600;2022-12-18T16:04:41;11.77;;;9.23;;
30543;SDS011;43388;46.308;4.600;2022-12-18T16:07:08;11.88;;;9.55;;
30543;SDS011;43388;46.308;4.600;2022-12-18T16:09:36;14.68;;;9.55;;
30543;SDS011;43388;46.308;4.600;2022-12-18T16:12:02;10.63;;;9.52;;
30543;SDS011;43388;46.308;4.600;2022-12-18T16:14:28;11.55;;;9.60;;
30543;SDS011;43388;46.308;4.600;2022-12-18T16:16:59;14.95;;;11.23;;
30543;SDS011;43388;46.308;4.600;2022-12-18T16:19:26;14.07;;;9.05;;
30543;SDS011;43388;46.308;4.600;2022-12-18T16:21:52;12.25;;;9.27;;
30543;SDS011;43388;46.308;4.600;2022-12-18T16:24:20;8.80;;;7.90;;